sensor_id;sensor_type;location;lat;lon;timestamp;P1;durP1;ratioP1;P2;durP2;ratioP2
80711;SDS011;70078;51.596;5.678;2023-07-13T00:00:45;7.03;;;2.40;;
80711;SDS011;70078;51.596;5.678;2023-07-13T00:03:11;6.03;;;1.88;;
80711;SDS011;70078;51.596;5.678;2023-07-13T00:05:38;7.65;;;2.00;;
80711;SDS011;70078;51.596;5.678;2023-07-13T00:08:04;5.30;;;2.05;;
80711;SDS011;70078;51.596;5.678;2023-07-13T00:10:30;4.00;;;1.65;;
80711;SDS011;70078;51.596;5.678;2023-07-13T00:12:56;5.53;;;2.55;;
80711;SDS011;70078;51.596;5.678;2023-07-13T00:15:23;4.68;;;1.83;;
80711;SDS011;70078;51.596;5.678;2023-07-13T00:17:51;4.50;;;1.67;;
80711;SDS011;70078;51.596;5.678;2023-07-13T00:20:17;4.43;;;2.00;;
80711;SDS011;70078;51.596;5.678;2023-07-13T00:22:42;10.10;;;2.17;;
80711;SDS011;70078;51.596;5.678;2023-07-13T00:25:11;6.60;;;1.80;;
80711;SDS011;70078;51.596;5.678;2023-07-13T00:27:37;8.77;;;3.42;;
80711;SDS011;70078;51.596;5.678;2023-07-13T00:30:02;6.65;;;3.20;;
80711;SDS011;70078;51.596;5.678;2023-07-13T00:32:28;4.88;;;1.85;;
80711;SDS011;70078;51.596;5.678;2023-07-13T00:34:54;5.28;;;1.90;;
80711;SDS011;70078;51.596;5.678;2023-07-13T00:37:21;3.22;;;1.30;;
80711;SDS011;70078;51.596;5.678;2023-07-13T00:39:47;5.13;;;2.20;;
80711;SDS011;70078;51.596;5.678;2023-07-13T00:42:12;7.80;;;2.97;;
80711;SDS011;70078;51.596;5.678;2023-07-13T00:44:37;4.90;;;2.00;;
80711;SDS011;70078;51.596;5.678;2023-07-13T00:47:04;5.50;;;2.60;;
80711;SDS011;70078;51.596;5.678;2023-07-13T00:49:30;7.97;;;2.58;;
80711;SDS011;70078;51.596;5.678;2023-07-13T00:51:59;6.55;;;1.77;;
80711;SDS011;70078;51.596;5.678;2023-07-13T00:54:32;8.93;;;2.15;;
80711;SDS011;70078;51.596;5.678;2023-07-13T00:57:03;8.43;;;2.70;;
80711;SDS011;70078;51.596;5.678;2023-07-13T00:59:32;4.68;;;1.92;;
80711;SDS011;70078;51.596;5.678;2023-07-13T01:01:59;6.95;;;2.15;;
80711;SDS011;70078;51.596;5.678;2023-07-13T01:04:25;4.88;;;2.42;;
80711;SDS011;70078;51.596;5.678;2023-07-13T01:06:51;5.82;;;1.88;;
80711;SDS011;70078;51.596;5.678;2023-07-13T01:09:17;7.03;;;2.03;;
80711;SDS011;70078;51.596;5.678;2023-07-13T01:11:43;4.30;;;2.92;;
80711;SDS011;70078;51.596;5.678;2023-07-13T01:14:09;4.63;;;1.70;;
80711;SDS011;70078;51.596;5.678;2023-07-13T01:16:35;4.18;;;2.00;;
80711;SDS011;70078;51.596;5.678;2023-07-13T01:19:03;5.57;;;1.75;;
80711;SDS011;70078;51.596;5.678;2023-07-13T01:22:00;6.63;;;1.95;;
80711;SDS011;70078;51.596;5.678;2023-07-13T01:24:50;4.55;;;2.17;;
80711;SDS011;70078;51.596;5.678;2023-07-13T01:27:17;4.68;;;2.00;;
80711;SDS011;70078;51.596;5.678;2023-07-13T01:29:46;5.53;;;2.63;;
80711;SDS011;70078;51.596;5.678;2023-07-13T01:32:16;6.72;;;1.95;;
80711;SDS011;70078;51.596;5.678;2023-07-13T01:34:48;6.00;;;2.25;;
80711;SDS011;70078;51.596;5.678;2023-07-13T01:37:14;5.57;;;2.58;;
80711;SDS011;70078;51.596;5.678;2023-07-13T01:39:40;7.13;;;2.05;;
80711;SDS011;70078;51.596;5.678;2023-07-13T01:42:05;7.05;;;2.13;;
80711;SDS011;70078;51.596;5.678;2023-07-13T01:44:30;5.55;;;2.65;;
80711;SDS011;70078;51.596;5.678;2023-07-13T01:46:57;8.32;;;2.20;;
80711;SDS011;70078;51.596;5.678;2023-07-13T01:49:22;7.68;;;2.53;;
80711;SDS011;70078;51.596;5.678;2023-07-13T01:51:48;5.13;;;2.00;;
80711;SDS011;70078;51.596;5.678;2023-07-13T01:54:13;6.07;;;1.58;;
80711;SDS011;70078;51.596;5.678;2023-07-13T01:56:38;9.07;;;2.30;;
80711;SDS011;70078;51.596;5.678;2023-07-13T01:59:04;7.07;;;1.90;;
80711;SDS011;70078;51.596;5.678;2023-07-13T02:01:30;7.68;;;2.45;;
80711;SDS011;70078;51.596;5.678;2023-07-13T02:03:55;9.52;;;2.47;;
80711;SDS011;70078;51.596;5.678;2023-07-13T02:06:20;6.10;;;2.20;;
80711;SDS011;70078;51.596;5.678;2023-07-13T02:08:46;5.85;;;1.83;;
80711;SDS011;70078;51.596;5.678;2023-07-13T02:11:11;8.38;;;3.35;;
80711;SDS011;70078;51.596;5.678;2023-07-13T02:13:37;8.27;;;2.92;;
80711;SDS011;70078;51.596;5.678;2023-07-13T02:16:03;7.30;;;3.78;;
80711;SDS011;70078;51.596;5.678;2023-07-13T02:18:28;8.95;;;2.30;;
80711;SDS011;70078;51.596;5.678;2023-07-13T02:20:54;6.30;;;2.15;;
80711;SDS011;70078;51.596;5.678;2023-07-13T02:23:19;6.50;;;2.55;;
80711;SDS011;70078;51.596;5.678;2023-07-13T02:25:45;4.18;;;1.85;;
80711;SDS011;70078;51.596;5.678;2023-07-13T02:28:10;5.50;;;2.42;;
80711;SDS011;70078;51.596;5.678;2023-07-13T02:30:36;6.40;;;3.63;;
80711;SDS011;70078;51.596;5.678;2023-07-13T02:33:02;8.27;;;2.70;;
80711;SDS011;70078;51.596;5.678;2023-07-13T02:35:27;7.18;;;2.10;;
80711;SDS011;70078;51.596;5.678;2023-07-13T02:37:53;6.22;;;2.25;;
80711;SDS011;70078;51.596;5.678;2023-07-13T02:40:18;6.05;;;2.10;;
80711;SDS011;70078;51.596;5.678;2023-07-13T02:42:44;8.50;;;2.70;;
80711;SDS011;70078;51.596;5.678;2023-07-13T02:45:09;6.68;;;2.75;;
80711;SDS011;70078;51.596;5.678;2023-07-13T02:47:35;8.75;;;3.53;;
80711;SDS011;70078;51.596;5.678;2023-07-13T02:50:01;11.65;;;3.83;;
80711;SDS011;70078;51.596;5.678;2023-07-13T02:52:27;5.68;;;2.10;;
80711;SDS011;70078;51.596;5.678;2023-07-13T02:54:52;7.38;;;3.15;;
80711;SDS011;70078;51.596;5.678;2023-07-13T02:57:18;8.63;;;2.45;;
80711;SDS011;70078;51.596;5.678;2023-07-13T02:59:43;7.10;;;2.28;;
80711;SDS011;70078;51.596;5.678;2023-07-13T03:02:08;7.93;;;2.50;;
80711;SDS011;70078;51.596;5.678;2023-07-13T03:04:35;7.18;;;2.35;;
80711;SDS011;70078;51.596;5.678;2023-07-13T03:07:01;7.43;;;2.20;;
80711;SDS011;70078;51.596;5.678;2023-07-13T03:09:26;7.13;;;2.42;;
80711;SDS011;70078;51.596;5.678;2023-07-13T03:11:55;6.85;;;2.30;;
80711;SDS011;70078;51.596;5.678;2023-07-13T03:14:21;8.65;;;2.53;;
80711;SDS011;70078;51.596;5.678;2023-07-13T03:16:47;7.57;;;2.67;;
80711;SDS011;70078;51.596;5.678;2023-07-13T03:19:13;10.07;;;2.45;;
80711;SDS011;70078;51.596;5.678;2023-07-13T03:21:38;9.88;;;3.78;;
80711;SDS011;70078;51.596;5.678;2023-07-13T03:24:04;10.45;;;2.83;;
80711;SDS011;70078;51.596;5.678;2023-07-13T03:26:30;7.00;;;2.28;;
80711;SDS011;70078;51.596;5.678;2023-07-13T03:28:55;6.43;;;3.50;;
80711;SDS011;70078;51.596;5.678;2023-07-13T03:31:21;8.18;;;2.75;;
80711;SDS011;70078;51.596;5.678;2023-07-13T03:33:50;7.38;;;2.47;;
80711;SDS011;70078;51.596;5.678;2023-07-13T03:36:16;7.70;;;3.65;;
80711;SDS011;70078;51.596;5.678;2023-07-13T03:38:51;8.88;;;2.55;;
80711;SDS011;70078;51.596;5.678;2023-07-13T03:41:18;6.10;;;2.97;;
80711;SDS011;70078;51.596;5.678;2023-07-13T03:43:44;9.98;;;2.55;;
80711;SDS011;70078;51.596;5.678;2023-07-13T03:46:09;6.82;;;3.00;;
80711;SDS011;70078;51.596;5.678;2023-07-13T03:48:35;8.32;;;2.80;;
80711;SDS011;70078;51.596;5.678;2023-07-13T03:51:00;8.52;;;2.78;;
80711;SDS011;70078;51.596;5.678;2023-07-13T03:53:26;7.78;;;2.50;;
80711;SDS011;70078;51.596;5.678;2023-07-13T03:55:52;11.27;;;2.80;;
80711;SDS011;70078;51.596;5.678;2023-07-13T03:58:34;7.45;;;2.63;;
80711;SDS011;70078;51.596;5.678;2023-07-13T04:01:01;12.43;;;3.13;;
80711;SDS011;70078;51.596;5.678;2023-07-13T04:03:28;12.50;;;4.20;;
80711;SDS011;70078;51.596;5.678;2023-07-13T04:05:57;9.38;;;3.78;;
80711;SDS011;70078;51.596;5.678;2023-07-13T04:08:24;7.30;;;2.50;;
80711;SDS011;70078;51.596;5.678;2023-07-13T04:10:54;8.18;;;3.08;;
80711;SDS011;70078;51.596;5.678;2023-07-13T04:13:20;9.45;;;2.58;;
80711;SDS011;70078;51.596;5.678;2023-07-13T04:15:46;8.07;;;3.45;;
80711;SDS011;70078;51.596;5.678;2023-07-13T04:18:11;9.32;;;3.35;;
80711;SDS011;70078;51.596;5.678;2023-07-13T04:20:36;8.50;;;3.78;;
80711;SDS011;70078;51.596;5.678;2023-07-13T04:23:02;5.43;;;2.40;;
80711;SDS011;70078;51.596;5.678;2023-07-13T04:25:27;9.27;;;2.95;;
80711;SDS011;70078;51.596;5.678;2023-07-13T04:27:53;8.80;;;4.32;;
80711;SDS011;70078;51.596;5.678;2023-07-13T04:30:19;7.75;;;4.70;;
80711;SDS011;70078;51.596;5.678;2023-07-13T04:32:45;12.32;;;2.92;;
80711;SDS011;70078;51.596;5.678;2023-07-13T04:35:10;9.27;;;2.97;;
80711;SDS011;70078;51.596;5.678;2023-07-13T04:37:36;10.07;;;4.28;;
80711;SDS011;70078;51.596;5.678;2023-07-13T04:40:01;10.63;;;2.92;;
80711;SDS011;70078;51.596;5.678;2023-07-13T04:42:28;11.45;;;4.13;;
80711;SDS011;70078;51.596;5.678;2023-07-13T04:44:53;10.70;;;4.10;;
80711;SDS011;70078;51.596;5.678;2023-07-13T04:47:21;11.50;;;3.58;;
80711;SDS011;70078;51.596;5.678;2023-07-13T04:49:46;11.75;;;3.90;;
80711;SDS011;70078;51.596;5.678;2023-07-13T04:52:12;12.23;;;3.72;;
80711;SDS011;70078;51.596;5.678;2023-07-13T04:54:38;11.40;;;3.70;;
80711;SDS011;70078;51.596;5.678;2023-07-13T04:57:04;10.27;;;4.03;;
80711;SDS011;70078;51.596;5.678;2023-07-13T04:59:31;12.77;;;5.50;;
80711;SDS011;70078;51.596;5.678;2023-07-13T05:01:57;15.20;;;5.50;;
80711;SDS011;70078;51.596;5.678;2023-07-13T05:04:22;16.70;;;5.10;;
80711;SDS011;70078;51.596;5.678;2023-07-13T05:06:47;15.00;;;4.70;;
80711;SDS011;70078;51.596;5.678;2023-07-13T05:09:13;16.30;;;7.72;;
80711;SDS011;70078;51.596;5.678;2023-07-13T05:11:38;19.92;;;7.80;;
80711;SDS011;70078;51.596;5.678;2023-07-13T05:14:04;15.05;;;6.30;;
80711;SDS011;70078;51.596;5.678;2023-07-13T05:16:30;15.23;;;6.43;;
80711;SDS011;70078;51.596;5.678;2023-07-13T05:18:56;15.48;;;5.63;;
80711;SDS011;70078;51.596;5.678;2023-07-13T05:21:22;17.95;;;6.57;;
80711;SDS011;70078;51.596;5.678;2023-07-13T05:23:47;19.88;;;7.75;;
80711;SDS011;70078;51.596;5.678;2023-07-13T05:26:13;19.60;;;7.07;;
80711;SDS011;70078;51.596;5.678;2023-07-13T05:28:38;19.42;;;7.43;;
80711;SDS011;70078;51.596;5.678;2023-07-13T05:31:04;20.52;;;9.02;;
80711;SDS011;70078;51.596;5.678;2023-07-13T05:33:31;20.75;;;8.70;;
80711;SDS011;70078;51.596;5.678;2023-07-13T05:35:57;24.38;;;7.93;;
80711;SDS011;70078;51.596;5.678;2023-07-13T05:38:22;19.02;;;8.00;;
80711;SDS011;70078;51.596;5.678;2023-07-13T05:40:47;20.80;;;8.23;;
80711;SDS011;70078;51.596;5.678;2023-07-13T05:43:13;16.60;;;8.43;;
80711;SDS011;70078;51.596;5.678;2023-07-13T05:45:39;18.15;;;8.15;;
80711;SDS011;70078;51.596;5.678;2023-07-13T05:48:05;23.20;;;10.93;;
80711;SDS011;70078;51.596;5.678;2023-07-13T05:50:30;22.27;;;8.30;;
80711;SDS011;70078;51.596;5.678;2023-07-13T05:52:56;18.88;;;7.57;;
80711;SDS011;70078;51.596;5.678;2023-07-13T05:55:22;20.77;;;7.93;;
80711;SDS011;70078;51.596;5.678;2023-07-13T05:57:47;18.52;;;7.47;;
80711;SDS011;70078;51.596;5.678;2023-07-13T06:00:13;20.42;;;7.90;;
80711;SDS011;70078;51.596;5.678;2023-07-13T06:02:38;16.20;;;7.75;;
80711;SDS011;70078;51.596;5.678;2023-07-13T06:05:04;22.35;;;7.78;;
80711;SDS011;70078;51.596;5.678;2023-07-13T06:07:30;16.70;;;7.78;;
80711;SDS011;70078;51.596;5.678;2023-07-13T06:09:55;23.95;;;9.52;;
80711;SDS011;70078;51.596;5.678;2023-07-13T06:12:20;22.58;;;7.88;;
80711;SDS011;70078;51.596;5.678;2023-07-13T06:14:46;20.85;;;9.30;;
80711;SDS011;70078;51.596;5.678;2023-07-13T06:17:11;17.75;;;9.43;;
80711;SDS011;70078;51.596;5.678;2023-07-13T06:19:37;18.00;;;7.70;;
80711;SDS011;70078;51.596;5.678;2023-07-13T06:22:02;20.73;;;8.20;;
80711;SDS011;70078;51.596;5.678;2023-07-13T06:24:28;21.15;;;9.75;;
80711;SDS011;70078;51.596;5.678;2023-07-13T06:26:53;16.33;;;7.20;;
80711;SDS011;70078;51.596;5.678;2023-07-13T06:29:19;21.75;;;8.02;;
80711;SDS011;70078;51.596;5.678;2023-07-13T06:31:44;23.58;;;8.88;;
80711;SDS011;70078;51.596;5.678;2023-07-13T06:34:09;19.42;;;9.38;;
80711;SDS011;70078;51.596;5.678;2023-07-13T06:36:35;18.75;;;9.45;;
80711;SDS011;70078;51.596;5.678;2023-07-13T06:39:01;17.40;;;7.45;;
80711;SDS011;70078;51.596;5.678;2023-07-13T06:41:27;17.17;;;8.77;;
80711;SDS011;70078;51.596;5.678;2023-07-13T06:43:52;18.20;;;10.30;;
80711;SDS011;70078;51.596;5.678;2023-07-13T06:46:19;17.88;;;9.20;;
80711;SDS011;70078;51.596;5.678;2023-07-13T06:48:46;18.50;;;9.77;;
80711;SDS011;70078;51.596;5.678;2023-07-13T06:51:12;17.48;;;8.15;;
80711;SDS011;70078;51.596;5.678;2023-07-13T06:53:37;19.17;;;7.95;;
80711;SDS011;70078;51.596;5.678;2023-07-13T06:56:02;17.17;;;8.18;;
80711;SDS011;70078;51.596;5.678;2023-07-13T06:58:28;17.48;;;8.90;;
80711;SDS011;70078;51.596;5.678;2023-07-13T07:00:53;21.92;;;11.27;;
80711;SDS011;70078;51.596;5.678;2023-07-13T07:03:19;17.75;;;7.80;;
80711;SDS011;70078;51.596;5.678;2023-07-13T07:05:44;16.10;;;7.70;;
80711;SDS011;70078;51.596;5.678;2023-07-13T07:08:10;22.52;;;8.35;;
80711;SDS011;70078;51.596;5.678;2023-07-13T07:10:36;22.58;;;8.63;;
80711;SDS011;70078;51.596;5.678;2023-07-13T07:13:02;23.48;;;8.00;;
80711;SDS011;70078;51.596;5.678;2023-07-13T07:15:28;18.67;;;8.18;;
80711;SDS011;70078;51.596;5.678;2023-07-13T07:17:55;18.33;;;8.30;;
80711;SDS011;70078;51.596;5.678;2023-07-13T07:20:20;16.83;;;8.40;;
80711;SDS011;70078;51.596;5.678;2023-07-13T07:22:46;17.55;;;8.45;;
80711;SDS011;70078;51.596;5.678;2023-07-13T07:25:11;19.10;;;6.78;;
80711;SDS011;70078;51.596;5.678;2023-07-13T07:27:37;17.63;;;9.40;;
80711;SDS011;70078;51.596;5.678;2023-07-13T07:30:02;15.48;;;7.90;;
80711;SDS011;70078;51.596;5.678;2023-07-13T07:32:29;15.82;;;7.97;;
80711;SDS011;70078;51.596;5.678;2023-07-13T07:34:55;20.55;;;7.95;;
80711;SDS011;70078;51.596;5.678;2023-07-13T07:37:21;16.27;;;8.10;;
80711;SDS011;70078;51.596;5.678;2023-07-13T07:39:46;16.75;;;7.72;;
80711;SDS011;70078;51.596;5.678;2023-07-13T07:42:11;14.60;;;7.22;;
80711;SDS011;70078;51.596;5.678;2023-07-13T07:44:37;16.83;;;8.77;;
80711;SDS011;70078;51.596;5.678;2023-07-13T07:47:05;19.25;;;8.15;;
80711;SDS011;70078;51.596;5.678;2023-07-13T07:49:31;20.20;;;8.57;;
80711;SDS011;70078;51.596;5.678;2023-07-13T07:51:56;16.95;;;8.43;;
80711;SDS011;70078;51.596;5.678;2023-07-13T07:54:22;15.57;;;7.65;;
80711;SDS011;70078;51.596;5.678;2023-07-13T07:56:47;13.85;;;7.35;;
80711;SDS011;70078;51.596;5.678;2023-07-13T07:59:12;14.43;;;7.10;;
80711;SDS011;70078;51.596;5.678;2023-07-13T08:01:38;16.33;;;8.02;;
80711;SDS011;70078;51.596;5.678;2023-07-13T08:04:03;16.85;;;7.70;;
80711;SDS011;70078;51.596;5.678;2023-07-13T08:06:29;17.30;;;7.78;;
80711;SDS011;70078;51.596;5.678;2023-07-13T08:08:54;19.13;;;7.68;;
80711;SDS011;70078;51.596;5.678;2023-07-13T08:11:21;17.20;;;8.23;;
80711;SDS011;70078;51.596;5.678;2023-07-13T08:13:47;15.88;;;7.78;;
80711;SDS011;70078;51.596;5.678;2023-07-13T08:16:12;14.68;;;7.75;;
80711;SDS011;70078;51.596;5.678;2023-07-13T08:18:38;17.73;;;7.15;;
80711;SDS011;70078;51.596;5.678;2023-07-13T08:21:04;14.85;;;7.22;;
80711;SDS011;70078;51.596;5.678;2023-07-13T08:23:30;15.00;;;7.20;;
80711;SDS011;70078;51.596;5.678;2023-07-13T08:25:55;17.40;;;7.22;;
80711;SDS011;70078;51.596;5.678;2023-07-13T08:28:21;16.40;;;7.78;;
80711;SDS011;70078;51.596;5.678;2023-07-13T08:30:47;16.05;;;7.05;;
80711;SDS011;70078;51.596;5.678;2023-07-13T08:33:14;14.15;;;7.60;;
80711;SDS011;70078;51.596;5.678;2023-07-13T08:35:46;12.65;;;6.15;;
80711;SDS011;70078;51.596;5.678;2023-07-13T08:38:13;16.08;;;7.57;;
80711;SDS011;70078;51.596;5.678;2023-07-13T08:40:38;14.63;;;6.18;;
80711;SDS011;70078;51.596;5.678;2023-07-13T08:43:04;12.77;;;6.05;;
80711;SDS011;70078;51.596;5.678;2023-07-13T08:45:36;14.85;;;5.10;;
80711;SDS011;70078;51.596;5.678;2023-07-13T08:48:11;12.02;;;6.03;;
80711;SDS011;70078;51.596;5.678;2023-07-13T08:53:15;17.60;;;5.82;;
80711;SDS011;70078;51.596;5.678;2023-07-13T08:55:41;10.85;;;5.35;;
80711;SDS011;70078;51.596;5.678;2023-07-13T08:58:12;11.10;;;5.78;;
80711;SDS011;70078;51.596;5.678;2023-07-13T09:03:37;10.77;;;5.07;;
80711;SDS011;70078;51.596;5.678;2023-07-13T09:06:02;9.93;;;5.00;;
80711;SDS011;70078;51.596;5.678;2023-07-13T09:16:55;13.90;;;5.38;;
80711;SDS011;70078;51.596;5.678;2023-07-13T09:19:23;9.32;;;4.63;;
80711;SDS011;70078;51.596;5.678;2023-07-13T09:21:57;8.85;;;5.20;;
80711;SDS011;70078;51.596;5.678;2023-07-13T09:27:21;9.57;;;6.20;;
80711;SDS011;70078;51.596;5.678;2023-07-13T09:29:50;7.07;;;4.38;;
80711;SDS011;70078;51.596;5.678;2023-07-13T09:32:24;10.30;;;5.63;;
80711;SDS011;70078;51.596;5.678;2023-07-13T09:34:52;9.98;;;4.70;;
80711;SDS011;70078;51.596;5.678;2023-07-13T09:37:20;7.78;;;4.72;;
80711;SDS011;70078;51.596;5.678;2023-07-13T09:39:48;11.93;;;4.65;;
80711;SDS011;70078;51.596;5.678;2023-07-13T09:47:16;8.02;;;4.50;;
80711;SDS011;70078;51.596;5.678;2023-07-13T09:52:47;9.18;;;5.97;;
80711;SDS011;70078;51.596;5.678;2023-07-13T09:55:24;8.18;;;5.10;;
80711;SDS011;70078;51.596;5.678;2023-07-13T09:58:03;7.07;;;4.65;;
80711;SDS011;70078;51.596;5.678;2023-07-13T10:00:34;11.25;;;4.38;;
80711;SDS011;70078;51.596;5.678;2023-07-13T10:03:19;8.25;;;4.32;;
80711;SDS011;70078;51.596;5.678;2023-07-13T10:05:48;9.30;;;4.03;;
80711;SDS011;70078;51.596;5.678;2023-07-13T10:10:59;10.60;;;6.75;;
80711;SDS011;70078;51.596;5.678;2023-07-13T10:15:56;6.65;;;4.05;;
80711;SDS011;70078;51.596;5.678;2023-07-13T10:18:24;9.18;;;5.82;;
80711;SDS011;70078;51.596;5.678;2023-07-13T10:20:51;8.30;;;5.55;;
80711;SDS011;70078;51.596;5.678;2023-07-13T10:23:24;8.90;;;3.95;;
80711;SDS011;70078;51.596;5.678;2023-07-13T10:25:55;10.70;;;3.92;;
80711;SDS011;70078;51.596;5.678;2023-07-13T10:30:51;6.80;;;4.25;;
80711;SDS011;70078;51.596;5.678;2023-07-13T10:33:17;11.77;;;4.15;;
80711;SDS011;70078;51.596;5.678;2023-07-13T10:35:43;7.70;;;3.00;;
80711;SDS011;70078;51.596;5.678;2023-07-13T10:38:12;7.03;;;3.42;;
80711;SDS011;70078;51.596;5.678;2023-07-13T10:40:55;6.38;;;4.93;;
80711;SDS011;70078;51.596;5.678;2023-07-13T10:43:28;6.05;;;2.78;;
80711;SDS011;70078;51.596;5.678;2023-07-13T10:45:59;6.65;;;2.95;;
80711;SDS011;70078;51.596;5.678;2023-07-13T10:48:26;8.40;;;3.00;;
80711;SDS011;70078;51.596;5.678;2023-07-13T10:50:54;10.13;;;3.55;;
80711;SDS011;70078;51.596;5.678;2023-07-13T10:53:36;6.30;;;3.17;;
80711;SDS011;70078;51.596;5.678;2023-07-13T10:56:05;6.45;;;3.13;;
80711;SDS011;70078;51.596;5.678;2023-07-13T10:58:43;5.60;;;3.40;;
80711;SDS011;70078;51.596;5.678;2023-07-13T11:03:38;6.22;;;3.08;;
80711;SDS011;70078;51.596;5.678;2023-07-13T11:07:00;8.00;;;2.88;;
80711;SDS011;70078;51.596;5.678;2023-07-13T11:09:24;6.20;;;3.00;;
80711;SDS011;70078;51.596;5.678;2023-07-13T11:12:05;6.82;;;2.75;;
80711;SDS011;70078;51.596;5.678;2023-07-13T11:22:44;8.10;;;5.30;;
80711;SDS011;70078;51.596;5.678;2023-07-13T11:25:31;6.07;;;5.45;;
80711;SDS011;70078;51.596;5.678;2023-07-13T11:33:13;10.50;;;6.78;;
80711;SDS011;70078;51.596;5.678;2023-07-13T11:35:46;6.32;;;3.97;;
80711;SDS011;70078;51.596;5.678;2023-07-13T11:38:16;7.50;;;5.47;;
80711;SDS011;70078;51.596;5.678;2023-07-13T11:40:47;7.15;;;4.90;;
80711;SDS011;70078;51.596;5.678;2023-07-13T11:43:15;7.13;;;4.13;;
80711;SDS011;70078;51.596;5.678;2023-07-13T11:45:42;9.77;;;5.03;;
80711;SDS011;70078;51.596;5.678;2023-07-13T11:50:51;8.48;;;4.60;;
80711;SDS011;70078;51.596;5.678;2023-07-13T11:53:27;10.10;;;5.45;;
80711;SDS011;70078;51.596;5.678;2023-07-13T11:55:58;9.93;;;5.82;;
80711;SDS011;70078;51.596;5.678;2023-07-13T11:58:24;8.82;;;5.45;;
80711;SDS011;70078;51.596;5.678;2023-07-13T12:00:53;9.98;;;6.13;;
80711;SDS011;70078;51.596;5.678;2023-07-13T12:03:22;12.00;;;6.10;;
80711;SDS011;70078;51.596;5.678;2023-07-13T12:05:57;7.50;;;5.45;;
80711;SDS011;70078;51.596;5.678;2023-07-13T12:08:37;8.88;;;5.65;;
80711;SDS011;70078;51.596;5.678;2023-07-13T12:11:06;8.55;;;5.63;;
80711;SDS011;70078;51.596;5.678;2023-07-13T12:13:40;6.28;;;4.75;;
80711;SDS011;70078;51.596;5.678;2023-07-13T12:16:47;7.57;;;5.43;;
80711;SDS011;70078;51.596;5.678;2023-07-13T12:18:59;12.60;;;6.13;;
80711;SDS011;70078;51.596;5.678;2023-07-13T12:21:28;8.15;;;5.28;;
80711;SDS011;70078;51.596;5.678;2023-07-13T12:23:59;7.40;;;5.05;;
80711;SDS011;70078;51.596;5.678;2023-07-13T12:26:27;7.70;;;6.05;;
80711;SDS011;70078;51.596;5.678;2023-07-13T12:28:54;6.78;;;3.83;;
80711;SDS011;70078;51.596;5.678;2023-07-13T12:31:35;6.53;;;3.88;;
80711;SDS011;70078;51.596;5.678;2023-07-13T12:36:40;8.00;;;4.05;;
80711;SDS011;70078;51.596;5.678;2023-07-13T12:39:13;7.50;;;4.22;;
80711;SDS011;70078;51.596;5.678;2023-07-13T12:41:52;8.80;;;5.90;;
80711;SDS011;70078;51.596;5.678;2023-07-13T12:44:20;6.90;;;5.22;;
80711;SDS011;70078;51.596;5.678;2023-07-13T12:47:06;8.52;;;6.25;;
80711;SDS011;70078;51.596;5.678;2023-07-13T12:49:42;6.00;;;4.65;;
80711;SDS011;70078;51.596;5.678;2023-07-13T12:52:14;9.00;;;4.88;;
80711;SDS011;70078;51.596;5.678;2023-07-13T12:54:57;6.53;;;5.68;;
80711;SDS011;70078;51.596;5.678;2023-07-13T12:57:28;9.98;;;5.72;;
80711;SDS011;70078;51.596;5.678;2023-07-13T12:59:55;6.03;;;3.88;;
80711;SDS011;70078;51.596;5.678;2023-07-13T13:04:56;6.00;;;3.83;;
80711;SDS011;70078;51.596;5.678;2023-07-13T13:07:22;5.47;;;3.47;;
80711;SDS011;70078;51.596;5.678;2023-07-13T13:09:48;7.07;;;4.55;;
80711;SDS011;70078;51.596;5.678;2023-07-13T13:12:14;6.55;;;3.65;;
80711;SDS011;70078;51.596;5.678;2023-07-13T13:14:40;7.25;;;4.47;;
80711;SDS011;70078;51.596;5.678;2023-07-13T13:17:11;6.75;;;2.83;;
80711;SDS011;70078;51.596;5.678;2023-07-13T13:19:44;7.28;;;2.70;;
80711;SDS011;70078;51.596;5.678;2023-07-13T13:22:10;4.15;;;2.60;;
80711;SDS011;70078;51.596;5.678;2023-07-13T13:24:36;5.60;;;2.63;;
80711;SDS011;70078;51.596;5.678;2023-07-13T13:27:01;9.25;;;2.78;;
80711;SDS011;70078;51.596;5.678;2023-07-13T13:29:27;7.00;;;2.75;;
80711;SDS011;70078;51.596;5.678;2023-07-13T13:31:53;8.05;;;3.03;;
80711;SDS011;70078;51.596;5.678;2023-07-13T13:34:20;6.97;;;3.22;;
80711;SDS011;70078;51.596;5.678;2023-07-13T13:36:48;6.03;;;3.10;;
80711;SDS011;70078;51.596;5.678;2023-07-13T13:39:16;6.05;;;3.20;;
80711;SDS011;70078;51.596;5.678;2023-07-13T13:41:50;6.00;;;3.25;;
80711;SDS011;70078;51.596;5.678;2023-07-13T13:44:17;5.38;;;4.70;;
80711;SDS011;70078;51.596;5.678;2023-07-13T13:46:53;10.65;;;4.55;;
80711;SDS011;70078;51.596;5.678;2023-07-13T13:49:24;6.68;;;4.50;;
80711;SDS011;70078;51.596;5.678;2023-07-13T13:51:51;5.25;;;3.67;;
80711;SDS011;70078;51.596;5.678;2023-07-13T13:54:18;7.43;;;4.47;;
80711;SDS011;70078;51.596;5.678;2023-07-13T13:56:46;6.97;;;3.47;;
80711;SDS011;70078;51.596;5.678;2023-07-13T13:59:13;5.70;;;3.40;;
80711;SDS011;70078;51.596;5.678;2023-07-13T14:01:40;6.70;;;3.22;;
80711;SDS011;70078;51.596;5.678;2023-07-13T14:04:08;7.20;;;3.17;;
80711;SDS011;70078;51.596;5.678;2023-07-13T14:06:39;6.25;;;4.70;;
80711;SDS011;70078;51.596;5.678;2023-07-13T14:09:08;8.20;;;4.03;;
80711;SDS011;70078;51.596;5.678;2023-07-13T14:11:36;5.72;;;3.33;;
80711;SDS011;70078;51.596;5.678;2023-07-13T14:14:01;6.53;;;4.07;;
80711;SDS011;70078;51.596;5.678;2023-07-13T14:16:30;5.65;;;3.15;;
80711;SDS011;70078;51.596;5.678;2023-07-13T14:18:59;8.57;;;3.28;;
80711;SDS011;70078;51.596;5.678;2023-07-13T14:21:27;6.28;;;3.13;;
80711;SDS011;70078;51.596;5.678;2023-07-13T14:23:53;5.20;;;2.72;;
80711;SDS011;70078;51.596;5.678;2023-07-13T14:26:20;4.78;;;3.25;;
80711;SDS011;70078;51.596;5.678;2023-07-13T14:28:48;4.78;;;2.55;;
80711;SDS011;70078;51.596;5.678;2023-07-13T14:31:16;4.82;;;2.80;;
80711;SDS011;70078;51.596;5.678;2023-07-13T14:33:42;4.35;;;2.47;;
80711;SDS011;70078;51.596;5.678;2023-07-13T14:38:49;9.10;;;2.38;;
80711;SDS011;70078;51.596;5.678;2023-07-13T14:41:26;4.28;;;2.78;;
80711;SDS011;70078;51.596;5.678;2023-07-13T14:43:52;4.70;;;3.03;;
80711;SDS011;70078;51.596;5.678;2023-07-13T14:46:28;6.53;;;2.95;;
80711;SDS011;70078;51.596;5.678;2023-07-13T14:51:59;4.97;;;2.67;;
80711;SDS011;70078;51.596;5.678;2023-07-13T14:54:28;7.05;;;4.00;;
80711;SDS011;70078;51.596;5.678;2023-07-13T14:56:54;4.97;;;2.95;;
80711;SDS011;70078;51.596;5.678;2023-07-13T14:59:19;5.43;;;4.20;;
80711;SDS011;70078;51.596;5.678;2023-07-13T15:01:45;5.55;;;2.95;;
80711;SDS011;70078;51.596;5.678;2023-07-13T15:04:12;5.47;;;3.13;;
80711;SDS011;70078;51.596;5.678;2023-07-13T15:06:57;5.10;;;2.50;;
80711;SDS011;70078;51.596;5.678;2023-07-13T15:09:25;5.43;;;2.33;;
80711;SDS011;70078;51.596;5.678;2023-07-13T15:11:54;5.93;;;2.35;;
80711;SDS011;70078;51.596;5.678;2023-07-13T15:14:20;4.43;;;2.80;;
80711;SDS011;70078;51.596;5.678;2023-07-13T15:16:47;4.72;;;2.67;;
80711;SDS011;70078;51.596;5.678;2023-07-13T15:19:16;6.35;;;4.68;;
80711;SDS011;70078;51.596;5.678;2023-07-13T15:21:42;6.13;;;4.63;;
80711;SDS011;70078;51.596;5.678;2023-07-13T15:24:08;6.47;;;3.95;;
80711;SDS011;70078;51.596;5.678;2023-07-13T15:26:35;8.27;;;3.35;;
80711;SDS011;70078;51.596;5.678;2023-07-13T15:29:01;6.35;;;3.03;;
80711;SDS011;70078;51.596;5.678;2023-07-13T15:31:28;4.80;;;3.17;;
80711;SDS011;70078;51.596;5.678;2023-07-13T15:33:55;4.25;;;2.88;;
80711;SDS011;70078;51.596;5.678;2023-07-13T15:36:22;5.45;;;2.63;;
80711;SDS011;70078;51.596;5.678;2023-07-13T15:38:50;5.78;;;3.47;;
80711;SDS011;70078;51.596;5.678;2023-07-13T15:43:51;5.30;;;2.95;;
80711;SDS011;70078;51.596;5.678;2023-07-13T15:46:23;5.03;;;2.83;;
80711;SDS011;70078;51.596;5.678;2023-07-13T15:48:49;4.60;;;2.47;;
80711;SDS011;70078;51.596;5.678;2023-07-13T15:51:29;5.18;;;3.65;;